• Join FlightAware (Why Join?)
  • Login
  • US Flag 
05:15PM EDT


 

Airport Tracker/Info


-or-


 

Live Flight TrackerFlight Track Log ✈ UAL1259 ✈ 27-Apr-2013 ✈ MWCR / GCM - KIAD

Flight Track Log - Related Links

Times and Time Zones

All times are in EDT time to prevent confusion due to time zone crossing. See the UAL1259 flight status page for this flight to view local times or setup timezone preferences in your user account.

Time Position Orientation Groundspeed Altitude Reporting Facility
EDT Latitude Longitude Course Direction KTS MPH feet Rate Location/Type
12:48PM 19.7536 -81.3413 North  Level FlightAware Approximate
12:49PM 19.8688 -81.3372 North  Level FlightAware Approximate
12:50PM 19.9840 -81.3331 North  Level FlightAware Approximate
12:51PM 20.0992 -81.3289 North  Level FlightAware Approximate
12:52PM 20.2144 -81.3248 North  Level FlightAware Approximate
12:53PM 20.3296 -81.3206 North  Level FlightAware Approximate
12:54PM 20.4448 -81.3165 North  Level FlightAware Approximate
12:55PM 20.5600 -81.3123 North  Level FlightAware Approximate
12:56PM 20.6752 -81.3082 North  Level FlightAware Approximate
12:57PM 20.7904 -81.3040 North  Level FlightAware Approximate
12:58PM 20.9056 -81.2998 North  Level FlightAware Approximate
12:59PM 20.9950 -81.2975 North  Level FlightAware Approximate
01:00PM 21.1102 -81.2945 North  Level FlightAware Approximate
01:01PM 21.2254 -81.2914 North  Level FlightAware Approximate
01:02PM 21.3407 -81.2884 North  Level FlightAware Approximate
01:03PM 21.4559 -81.2853 North  Level FlightAware Approximate
01:04PM 21.5711 -81.2823 North  Level FlightAware Approximate
01:05PM 21.6863 -81.2792 North  Level FlightAware Approximate
01:06PM 21.8016 -81.2761 North  Level FlightAware Approximate
01:07PM 21.9168 -81.2731 North  Level FlightAware Approximate
01:08PM 22.0320 -81.2700 North  Level FlightAware Approximate
01:09PM 22.1473 -81.2669 North  Level FlightAware Approximate
01:10PM 22.2625 -81.2638 North  Level FlightAware Approximate
01:11PM 22.3777 -81.2607 North  Level FlightAware Approximate
01:12PM 22.4930 -81.2576 North  Level FlightAware Approximate
01:13PM 22.6082 -81.2545 North  Level FlightAware Approximate
01:14PM 22.7234 -81.2514 North  Level FlightAware Approximate
01:14PM 22.6106 -81.3853 33° Northeast 471 542 32,000  Level Miami Center
01:15PM 22.8386 -81.2483 North  Level FlightAware Approximate
01:15PM 22.7408 -81.3628 North 459 528 31,900  Level Miami Center
01:16PM 22.9539 -81.2452 North  Level FlightAware Approximate
01:16PM 22.8594 -81.3036 25° Northeast 457 526 32,000  Level Miami Center
01:17PM 23.0691 -81.2421 North  Level FlightAware Approximate
01:17PM 22.9803 -81.2447 24° Northeast 464 534 31,900  Level Miami Center
01:18PM 23.1843 -81.2389 North  Level FlightAware Approximate
01:18PM 23.1008 -81.1833 25° Northeast 472 543 31,900  Level Miami Center
01:19PM 23.2858 -81.1682 33° Northeast  Level FlightAware Approximate
01:19PM 23.2217 -81.1219 25° Northeast 472 543 32,000  Level Miami Center
01:20PM 23.3425 -81.0625 24° Northeast 472 543 32,000  Level Miami Center
01:21PM 23.4631 -81.0008 25° Northeast 472 543 32,000  Level Miami Center
01:22PM 23.5839 -80.9414 24° Northeast 472 543 32,000  Level Miami Center
01:23PM 23.7194 -80.8708 25° Northeast 478 550 32,000  Level Miami Center
01:24PM 23.8381 -80.8133 24° Northeast 473 544 32,000  Level Miami Center
01:25PM 23.9586 -80.7489 26° Northeast 468 539 32,000  Level Miami Center
01:26PM 24.0792 -80.6889 24° Northeast 468 539 32,000  Level Miami Center
01:27PM 24.2019 -80.6267 25° Northeast 468 539 32,000 480 Level Miami Center
01:28PM 24.3206 -80.5664 25° Northeast 473 544 33,000 480 Climbing Miami Center
01:29PM 24.4411 -80.5039 25° Northeast 468 539 33,000  Level Miami Center
01:30PM 24.5575 -80.4433 25° Northeast 468 539 33,000  Level Miami Center
01:31PM 24.6653 -80.3939 23° Northeast 468 539 33,000  Level Miami Center
01:32PM 24.7836 -80.3308 26° Northeast 468 539 33,000 -60 Level Miami Center
01:33PM 24.9000 -80.2700 25° Northeast 463 533 32,900  Descending Miami Center
01:34PM 25.0206 -80.2092 25° Northeast 463 533 33,000  Climbing Miami Center
01:35PM 25.1389 -80.1481 25° Northeast 468 539 33,000  Level Miami Center
01:36PM 25.2592 -80.0869 25° Northeast 468 539 33,000  Level Miami Center
01:37PM 25.3775 -80.0236 26° Northeast 468 539 33,000 -60 Level Miami Center
01:38PM 25.4958 -79.9622 25° Northeast 468 539 32,900  Descending Miami Center
01:39PM 25.6164 -79.9008 25° Northeast 468 539 33,000  Climbing Miami Center
01:40PM 25.7344 -79.8392 25° Northeast 468 539 33,000  Level Miami Center
01:41PM 25.8550 -79.7750 26° Northeast 468 539 33,000  Level Miami Center
01:42PM 25.9753 -79.7111 26° Northeast 468 539 33,000 -60 Level Miami Center
01:43PM 26.0933 -79.6514 24° Northeast 468 539 32,900  Descending Miami Center
01:44PM 26.2114 -79.5892 25° Northeast 468 539 33,000  Climbing Miami Center
01:45PM 26.3297 -79.5247 26° Northeast 468 539 33,000  Level Miami Center
01:46PM 26.4603 -79.4581 25° Northeast 468 539 33,000  Level Miami Center
01:47PM 26.5681 -79.4000 26° Northeast 468 539 33,000  Level Miami Center
01:48PM 26.6986 -79.3308 25° Northeast 468 539 33,000  Level Miami Center
01:49PM 26.8167 -79.2681 25° Northeast 468 539 33,000  Level Miami Center
01:50PM 26.9242 -79.2097 26° Northeast 468 539 33,000  Level Miami Center
01:51PM 27.0461 -79.1517 23° Northeast 468 539 33,000  Level Miami Center
01:52PM 27.1622 -79.0839 27° Northeast 468 539 33,000  Level Miami Center
01:53PM 27.2781 -79.0206 26° Northeast 468 539 33,000  Level Miami Center
01:54PM 27.4106 -78.9575 23° Northeast 468 539 33,000  Level Miami Center
01:55PM 27.5342 -78.9317 10° North 456 525 33,000  Level Miami Center
01:56PM 27.6639 -78.9131 North 450 518 33,000  Level Miami Center
01:57PM 27.7789 -78.8964 North 455 524 33,000  Level Miami Center
01:58PM 27.9169 -78.8753 North 464 534 33,000  Level Miami Center
01:59PM 28.0467 -78.8586 North 464 534 33,000  Level Miami Center
02:00PM 28.1764 -78.8397 North 464 534 33,000 -60 Level Miami Center
02:01PM 28.3039 -78.8231 North 464 534 32,900 -60 Descending Miami Center
02:02PM 28.4294 -78.8042 North 464 534 32,900  Level Miami Center
02:03PM 28.5569 -78.7850 North 464 534 33,000  Climbing Miami Center
02:04PM 28.6844 -78.7683 North 464 534 32,900  Descending Miami Center
02:05PM 28.8142 -78.7492 North 464 534 33,000  Climbing Miami Center
02:06PM 28.9375 -78.7275 North 458 527 33,000  Level Miami Center
02:07PM 29.0669 -78.7131 North 458 527 33,000  Level Miami Center
02:08PM 29.1906 -78.6914 North 457 526 33,000 -60 Level Miami Center
02:09PM 29.3136 -78.6744 North 457 526 32,900 -60 Descending Miami Center
02:10PM 29.4331 -78.6503 10° North 451 519 32,900  Level Miami Center
02:11PM 29.5667 -78.6381 North 454 522 33,000  Climbing Miami Center
02:12PM 29.6606 -78.6147 12° North 447 514 33,000  Level Jacksonville Center
02:13PM 29.7828 -78.5928 North 440 506 33,000  Level Jacksonville Center
02:14PM 29.9139 -78.5772 North 466 536 33,000  Level Jacksonville Center
02:15PM 30.0447 -78.5594 North 456 525 33,000  Level Jacksonville Center
02:16PM 30.1669 -78.5369 North 449 517 33,000  Level Jacksonville Center
02:17PM 30.2794 -78.5247 North 456 525 33,000  Level Jacksonville Center
02:18PM 30.4039 -78.5047 North 458 527 33,000  Level Jacksonville Center
02:19PM 30.5264 -78.4844 North 453 521 33,000  Level Jacksonville Center
02:20PM 30.6594 -78.4664 North 459 528 33,000 -60 Level Jacksonville Center
02:21PM 30.7900 -78.4458 North 459 528 32,900  Descending Jacksonville Center
02:22PM 30.9189 -78.4275 North 465 535 33,000  Climbing Jacksonville Center
02:23PM 31.0414 -78.4119 North 459 528 33,000 -60 Level Jacksonville Center
02:24PM 31.1681 -78.3892 North 459 528 32,900  Descending Jacksonville Center
02:25PM 31.2967 -78.3706 North 459 528 33,000  Climbing Jacksonville Center
02:26PM 31.4275 -78.3472 North 465 535 33,000  Level Jacksonville Center
02:27PM 31.5519 -78.3267 North 460 529 33,000  Level Jacksonville Center
02:28PM 31.6911 -78.3075 North 476 548 33,000  Level Jacksonville Center
02:29PM 31.8219 -78.2864 North 463 533 33,000 -60 Level Jacksonville Center
02:30PM 31.9486 -78.2678 North 463 533 32,900  Descending Jacksonville Center
02:31PM 32.0792 -78.2442 North 468 539 33,000  Climbing Jacksonville Center
02:32PM 32.1931 -78.2236 North 460 529 33,000 -60 Level Jacksonville Center
02:33PM 32.3219 -78.2022 North 460 529 32,900  Descending Jacksonville Center
02:34PM 32.4483 -78.1811 North 460 529 33,000  Climbing Jacksonville Center
02:35PM 32.5728 -78.1622 North 460 529 33,000  Level Jacksonville Center
02:36PM 32.6994 -78.1433 North 460 529 33,000  Level Jacksonville Center
02:37PM 32.8239 -78.1219 North 460 529 33,000 -60 Level Jacksonville Center
02:38PM 32.9483 -78.1028 North 460 529 32,900  Descending Jacksonville Center
02:39PM 33.0728 -78.0814 North 460 529 33,000  Climbing Jacksonville Center
02:40PM 33.1953 -78.0647 North 454 522 32,900  Descending Jacksonville Center
02:42PM 33.4839 -78.0167 North 446 513 33,000  Climbing Washington Center
02:43PM 33.6072 -77.9978 North 446 513 32,900  Descending Washington Center
02:44PM 33.7267 -77.9789 North 446 513 33,000  Climbing Washington Center
02:45PM 33.8481 -77.9572 North 446 513 33,000  Level Washington Center
02:46PM 33.9736 -77.9383 North 446 513 33,000  Level Washington Center
02:47PM 34.0928 -77.9192 North 441 507 33,000  Level Washington Center
02:48PM 34.2122 -77.8997 North 441 507 33,000  Level Washington Center
02:49PM 34.3461 -77.8786 North 436 502 33,000  Level Washington Center
02:50PM 34.4672 -77.8767 North 436 502 33,000  Level Washington Center
02:51PM 34.5842 -77.8725 North 431 496 33,000  Level Washington Center
02:52PM 34.7031 -77.8708 North 420 483 33,000  Level Washington Center
02:53PM 34.7989 -77.8733 359° North 420 483 33,000  Level Washington Center
02:54PM 34.9242 -77.8669 North 420 483 33,000  Level Washington Center
02:55PM 35.0433 -77.8625 North 420 483 33,000  Level Washington Center
02:56PM 35.1664 -77.8608 North 420 483 33,000  Level Washington Center
02:57PM 35.2833 -77.8617 360° North 420 483 33,000  Level Washington Center
02:58PM 35.4003 -77.8572 North 420 483 33,000  Level Washington Center
02:59PM 35.5192 -77.8581 360° North 420 483 33,000  Level Washington Center
03:00PM 35.6361 -77.8564 North 420 483 33,000  Level Washington Center
03:01PM 35.7528 -77.8544 North 420 483 33,000  Level Washington Center
03:02PM 35.8719 -77.8528 North 420 483 33,000  Level Washington Center
03:03PM 35.9886 -77.8511 North 420 483 33,000  Level Washington Center
03:04PM 36.1036 -77.8517 360° North 420 483 33,000  Level Washington Center
03:05PM 36.2203 -77.8500 North 420 483 33,000 -120 Level Washington Center
03:06PM 36.3372 -77.8481 North 420 483 32,800 -720 Descending Washington Center
03:07PM 36.4583 -77.8464 North 420 483 31,600 -1,800 Descending Washington Center
03:08PM 36.5772 -77.8422 North 413 475 29,200 -2,340 Descending Washington Center
03:09PM 36.6983 -77.8431 360° North 418 481 27,000 -1,140 Descending Washington Center
03:10PM 36.8156 -77.8128 12° North 423 487 27,000  Level Washington Center
03:11PM 36.9372 -77.7797 12° North 428 493 27,000  Level Washington Center
03:12PM 37.0567 -77.7494 11° North 428 493 27,000 -420 Level Washington Center
03:13PM 37.1761 -77.7189 12° North 433 498 26,200 -1,740 Descending Washington Center
03:14PM 37.2956 -77.6856 13° North 433 498 23,600 -2,100 Descending Washington Center
03:15PM 37.4089 -77.6547 12° North 422 486 22,000 -840 Descending Washington Center
03:16PM 37.5200 -77.6236 13° North 412 474 22,000 -720 Level Washington Center
03:17PM 37.6289 -77.5953 12° North 407 468 20,600 -1,800 Descending Washington Center
03:18PM 37.7358 -77.5664 12° North 402 463 18,500 -2,100 Descending Washington Center
03:19PM 37.8342 -77.5375 13° North 382 440 16,500 -2,220 Descending Washington Center
03:20PM 37.9328 -77.5111 12° North 367 422 14,100 -2,400 Descending Washington Center
03:21PM 38.0289 -77.4844 12° North 355 409 11,700 -1,920 Descending Washington Center
03:22PM 38.1106 -77.4708 North 350 403 10,400 -900 Descending Washington Center
03:23PM 38.1925 -77.4411 16° North 321 369 10,000 -300 Descending Washington Center
03:24PM 38.2617 -77.4006 25° Northeast 291 335 9,800 -720 Descending Washington Center
03:25PM 38.3333 -77.3600 24° Northeast 275 316 8,600 -1,380 Descending Washington Center
03:26PM 38.4083 -77.3589 North 265 305 7,100 -1,260 Descending Washington Center
03:27PM 38.4856 -77.3636 357° North 265 305 6,200 -960 Descending Washington Center
03:28PM 38.5625 -77.3653 359° North 271 312 5,200 -660 Descending Washington Center
03:29PM 38.6333 -77.3667 359° North 265 305 5,000 -360 Descending Potomac TRACON
03:30PM 38.7167 -77.3667 360° North 271 312 4,500 -480 Descending Potomac TRACON
03:31PM 38.8000 -77.3500 North 267 307 4,000 -300 Descending Potomac TRACON
03:32PM 38.8667 -77.3500 360° North 268 308 4,000 -360 Level Potomac TRACON
03:33PM 38.9500 -77.3500 360° North 268 308 3,400 -600 Descending Potomac TRACON